createdAt,value
2023-02-07T07:19:14.224Z,-5.50
2023-02-07T07:21:42.392Z,-3.70
2023-02-07T07:24:10.556Z,-4.00
2023-02-07T07:26:48.981Z,-3.80
2023-02-07T07:29:17.953Z,-3.90
2023-02-07T07:31:46.725Z,-3.90
2023-02-07T07:34:17.326Z,-3.60
2023-02-07T07:36:45.573Z,-3.10
2023-02-07T07:39:14.639Z,-2.60
2023-02-07T07:41:42.584Z,-2.00
2023-02-07T07:44:11.057Z,-1.70
2023-02-07T07:46:39.103Z,-1.70
2023-02-07T07:49:07.181Z,-1.80
2023-02-07T07:51:36.964Z,-1.90
2023-02-07T07:54:05.096Z,-1.20
2023-02-07T07:56:35.327Z,-1.10
2023-02-07T07:59:08.807Z,-0.60
2023-02-07T08:01:40.278Z,-0.60
2023-02-07T08:04:08.511Z,-0.80
2023-02-07T08:06:38.031Z,-0.50
2023-02-07T08:09:06.571Z,-0.50
2023-02-07T08:11:34.624Z,-0.20
2023-02-07T08:14:02.811Z,0.10
2023-02-07T08:16:30.850Z,-0.30
2023-02-07T08:18:58.985Z,-0.40
2023-02-07T08:21:27.836Z,-0.40
2023-02-07T08:23:57.328Z,-0.40
2023-02-07T08:26:25.540Z,-0.60
2023-02-07T08:28:53.709Z,-0.70
2023-02-07T08:31:21.853Z,-0.60
2023-02-07T08:33:49.955Z,-0.30
2023-02-07T08:36:18.098Z,0.30
2023-02-07T08:38:46.281Z,0.80
2023-02-07T08:41:15.781Z,1.50
2023-02-07T08:43:43.817Z,2.00
2023-02-07T08:46:12.009Z,2.20
2023-02-07T08:48:40.408Z,2.10
2023-02-07T08:51:09.310Z,2.80
2023-02-07T08:53:37.414Z,3.30
2023-02-07T08:56:06.002Z,3.80
2023-02-07T08:58:35.898Z,4.60
2023-02-07T09:01:04.050Z,4.20
2023-02-07T09:03:32.366Z,3.00
2023-02-07T09:06:00.712Z,2.80
2023-02-07T09:08:28.781Z,2.60
2023-02-07T09:10:57.062Z,3.40
2023-02-07T09:13:25.175Z,3.60
2023-02-07T09:15:57.096Z,4.40
2023-02-07T09:18:26.445Z,4.40
2023-02-07T09:20:55.073Z,4.80
2023-02-07T09:23:23.024Z,5.60
2023-02-07T09:25:53.357Z,5.20
2023-02-07T09:28:23.448Z,4.20
2023-02-07T09:30:52.232Z,4.10
2023-02-07T09:33:23.345Z,4.30
2023-02-07T09:35:51.644Z,3.90
2023-02-07T09:38:21.883Z,3.80
2023-02-07T09:40:52.092Z,3.60
2023-02-07T09:43:37.972Z,3.10
2023-02-07T09:46:13.503Z,2.80
2023-02-07T09:48:49.506Z,3.10
2023-02-07T09:51:20.816Z,3.60
2023-02-07T09:53:54.498Z,3.90
2023-02-07T09:56:25.353Z,4.40
2023-02-07T09:58:58.578Z,4.70
2023-02-07T10:01:30.091Z,4.30
2023-02-07T10:04:13.821Z,4.00
2023-02-07T10:06:45.903Z,3.70
2023-02-07T10:09:17.833Z,3.80
2023-02-07T10:11:53.010Z,3.30
2023-02-07T10:14:33.489Z,3.20
2023-02-07T10:17:30.551Z,2.90
2023-02-07T10:20:13.888Z,2.80
2023-02-07T10:22:49.528Z,3.20
2023-02-07T10:25:34.120Z,4.00
2023-02-07T10:28:26.342Z,4.50
2023-02-07T10:30:58.617Z,5.00
2023-02-07T10:33:34.091Z,5.40
2023-02-07T10:36:07.251Z,5.40
2023-02-07T10:38:43.769Z,6.30
2023-02-07T10:41:17.611Z,6.60
2023-02-07T10:43:48.336Z,6.60
2023-02-07T10:46:20.441Z,7.60
2023-02-07T10:48:49.764Z,8.20
2023-02-07T10:51:29.068Z,8.90
2023-02-07T10:54:07.721Z,8.70
2023-02-07T10:56:41.950Z,9.20
2023-02-07T10:59:33.897Z,9.40
2023-02-07T11:02:03.797Z,10.30
2023-02-07T11:04:36.857Z,10.00
2023-02-07T11:07:08.804Z,10.40
2023-02-07T11:09:38.088Z,11.10
2023-02-07T11:12:16.852Z,11.00
2023-02-07T11:15:01.327Z,10.00
2023-02-07T11:17:30.314Z,9.70
2023-02-07T11:20:03.707Z,9.80
2023-02-07T11:22:33.522Z,9.60
2023-02-07T11:25:04.893Z,9.80
2023-02-07T11:27:38.974Z,10.30
2023-02-07T11:30:10.145Z,10.10
2023-02-07T11:32:39.400Z,10.40
2023-02-07T11:35:09.701Z,10.80
2023-02-07T11:37:42.093Z,9.70
2023-02-07T11:40:26.295Z,8.20
2023-02-07T11:43:00.281Z,6.10
2023-02-07T11:45:29.249Z,4.90
2023-02-07T11:47:58.918Z,4.20
2023-02-07T11:50:30.870Z,3.70
2023-02-07T11:53:01.935Z,3.20
2023-02-07T11:55:35.080Z,2.80
2023-02-07T11:58:08.875Z,2.60
2023-02-07T12:00:39.377Z,2.50
2023-02-07T12:03:11.092Z,2.40
2023-02-07T12:05:43.329Z,2.30
2023-02-07T12:08:17.012Z,2.30
2023-02-07T12:10:49.376Z,2.20
2023-02-07T12:13:22.123Z,2.30
2023-02-07T12:15:55.380Z,2.40
2023-02-07T12:18:29.731Z,2.30
2023-02-07T12:21:10.882Z,2.40
2023-02-07T12:23:46.273Z,2.40
2023-02-07T12:26:24.031Z,2.30
2023-02-07T12:29:12.798Z,2.10
2023-02-07T12:31:51.573Z,2.10
2023-02-07T12:34:28.380Z,2.00
2023-02-07T12:37:02.051Z,2.00
2023-02-07T12:39:38.188Z,2.00
2023-02-07T12:42:24.398Z,2.00
2023-02-07T12:44:56.495Z,1.90
2023-02-07T12:47:38.379Z,1.90
2023-02-07T12:50:24.866Z,1.90
2023-02-07T12:53:05.474Z,2.00
2023-02-07T12:55:48.489Z,2.10
2023-02-07T12:58:38.872Z,2.20
2023-02-07T13:01:13.132Z,2.20
2023-02-07T13:04:11.308Z,2.10
2023-02-07T13:06:47.017Z,2.00
2023-02-07T13:09:23.213Z,2.10
2023-02-07T13:11:59.846Z,2.20
2023-02-07T13:14:37.888Z,2.30
2023-02-07T13:17:28.284Z,2.10
2023-02-07T13:20:01.798Z,2.10
2023-02-07T13:22:33.790Z,2.10
2023-02-07T13:25:02.727Z,2.30
2023-02-07T13:27:33.970Z,2.20
2023-02-07T13:30:02.739Z,2.10
2023-02-07T13:32:30.605Z,2.40
2023-02-07T13:35:02.814Z,2.30
2023-02-07T13:37:39.077Z,2.40
2023-02-07T13:40:22.189Z,2.50
2023-02-07T13:42:57.249Z,2.50
2023-02-07T13:45:33.410Z,2.20
2023-02-07T13:48:11.833Z,2.20
2023-02-07T13:50:47.265Z,2.10
2023-02-07T13:53:29.076Z,2.10
2023-02-07T13:56:03.603Z,2.10
2023-02-07T13:59:12.785Z,2.10
2023-02-07T14:01:52.642Z,2.30
2023-02-07T14:04:22.766Z,2.40
2023-02-07T14:07:05.505Z,2.30
2023-02-07T14:09:37.141Z,2.20
2023-02-07T14:12:07.935Z,2.00
2023-02-07T14:14:39.078Z,1.80
2023-02-07T14:17:08.777Z,1.90
2023-02-07T14:19:56.789Z,2.00
2023-02-07T14:22:28.135Z,2.10
2023-02-07T14:25:23.164Z,2.20
2023-02-07T14:28:20.810Z,2.30
2023-02-07T14:31:02.594Z,2.20
2023-02-07T14:33:34.922Z,2.10
2023-02-07T14:36:25.553Z,2.00
2023-02-07T14:39:23.522Z,2.00
2023-02-07T14:41:53.272Z,2.00
2023-02-07T14:44:28.235Z,1.90
2023-02-07T14:47:00.065Z,1.80
2023-02-07T14:49:34.168Z,1.70
2023-02-07T14:52:07.080Z,1.70
2023-02-07T14:54:43.474Z,1.60
2023-02-07T14:57:24.933Z,1.70
2023-02-07T15:00:01.483Z,1.70
2023-02-07T15:02:34.702Z,1.70
2023-02-07T15:05:18.964Z,1.60
2023-02-07T15:07:48.012Z,1.50
2023-02-07T15:10:17.582Z,1.40
2023-02-07T15:12:45.619Z,1.40
2023-02-07T15:15:21.873Z,1.30
2023-02-07T15:17:52.481Z,1.30
2023-02-07T15:20:24.535Z,1.30
2023-02-07T15:22:56.025Z,1.30
2023-02-07T15:25:25.219Z,1.20
2023-02-07T15:28:09.217Z,1.20
2023-02-07T15:30:39.417Z,1.20
2023-02-07T15:33:18.081Z,1.20
2023-02-07T15:35:45.990Z,1.20
2023-02-07T15:38:20.839Z,1.10
2023-02-07T15:40:49.526Z,1.20
2023-02-07T15:43:32.768Z,1.10
2023-02-07T15:46:07.467Z,1.10
2023-02-07T15:48:47.812Z,1.20
2023-02-07T15:51:17.825Z,1.10
2023-02-07T15:53:49.139Z,1.10
2023-02-07T15:56:18.118Z,1.20
2023-02-07T15:58:46.087Z,1.00
2023-02-07T16:01:17.806Z,1.10
2023-02-07T16:03:49.686Z,1.10
2023-02-07T16:06:21.041Z,0.90
2023-02-07T16:08:50.481Z,0.90
2023-02-07T16:11:36.419Z,0.90
2023-02-07T16:14:13.814Z,0.80
2023-02-07T16:16:48.171Z,0.80
2023-02-07T16:19:20.954Z,0.80
2023-02-07T16:21:54.320Z,0.80
2023-02-07T16:24:27.599Z,0.80
2023-02-07T16:26:57.084Z,0.70
2023-02-07T16:29:26.365Z,0.70
2023-02-07T16:31:55.668Z,0.70
2023-02-07T16:34:25.599Z,0.60
2023-02-07T16:36:55.729Z,0.50
2023-02-07T16:39:24.532Z,0.40
2023-02-07T16:41:56.284Z,0.50
2023-02-07T16:44:26.167Z,0.50
2023-02-07T16:46:54.199Z,0.70
2023-02-07T16:49:25.955Z,0.60
2023-02-07T16:51:54.716Z,0.70
2023-02-07T16:54:22.860Z,0.70
2023-02-07T16:56:54.550Z,0.60
2023-02-07T16:59:23.433Z,0.50
2023-02-07T17:01:53.910Z,0.40
2023-02-07T17:04:22.469Z,0.50
2023-02-07T17:06:52.044Z,0.30
2023-02-07T17:09:22.643Z,0.30
2023-02-07T17:11:51.033Z,0.20
2023-02-07T17:14:19.106Z,0.20
2023-02-07T17:16:47.458Z,0.10
2023-02-07T17:19:18.364Z,0.10
2023-02-07T17:21:46.730Z,0.20
2023-02-07T17:24:16.881Z,0.10
2023-02-07T17:26:48.555Z,0.00
2023-02-07T17:29:18.514Z,0.00
2023-02-07T17:31:47.259Z,0.00
2023-02-07T17:34:16.175Z,0.00
2023-02-07T17:36:47.656Z,0.00
2023-02-07T17:39:17.883Z,-0.10
2023-02-07T17:41:46.189Z,-0.10
2023-02-07T17:44:14.054Z,0.00
2023-02-07T17:46:42.183Z,-0.10
2023-02-07T17:49:14.850Z,0.00
2023-02-07T17:51:43.425Z,0.00
2023-02-07T17:54:11.528Z,0.00
2023-02-07T17:56:41.005Z,-0.10
2023-02-07T17:59:13.626Z,0.00
2023-02-07T18:01:41.749Z,-0.10
2023-02-07T18:04:09.909Z,-0.20
2023-02-07T18:06:37.826Z,-0.20
2023-02-07T18:09:05.936Z,-0.10
2023-02-07T18:11:34.640Z,0.00
2023-02-07T18:14:04.123Z,0.00
2023-02-07T18:16:32.089Z,-0.20
2023-02-07T18:19:00.185Z,-0.10
2023-02-07T18:21:28.306Z,-0.20
2023-02-07T18:23:56.772Z,-0.10
2023-02-07T18:26:24.750Z,-0.30
2023-02-07T18:28:54.005Z,-0.20
2023-02-07T18:31:25.924Z,-0.40
2023-02-07T18:33:55.171Z,-0.30
2023-02-07T18:36:24.484Z,-0.20
2023-02-07T18:38:52.430Z,-0.30
2023-02-07T18:41:23.540Z,-0.40
2023-02-07T18:43:51.915Z,-0.50
2023-02-07T18:46:23.082Z,-0.60
2023-02-07T18:48:55.827Z,-0.70
2023-02-07T18:51:28.223Z,-0.70
2023-02-07T18:53:56.280Z,-0.60
2023-02-07T18:56:26.128Z,-0.60
2023-02-07T18:58:56.832Z,-0.50
2023-02-07T19:01:28.704Z,-0.50
2023-02-07T19:03:58.458Z,-0.60
2023-02-07T19:06:28.538Z,-0.50
2023-02-07T19:08:57.188Z,-0.60
2023-02-07T19:11:25.242Z,-0.70
2023-02-07T19:13:53.768Z,-0.90
2023-02-07T19:16:23.735Z,-0.80
2023-02-07T19:18:53.282Z,-0.90
2023-02-07T19:21:26.913Z,-0.80
2023-02-07T19:23:56.421Z,-1.00
2023-02-07T19:26:25.182Z,-1.00
2023-02-07T19:28:53.745Z,-1.10
2023-02-07T19:31:22.754Z,-1.10
2023-02-07T19:33:54.205Z,-1.00
2023-02-07T19:36:23.580Z,-1.00
2023-02-07T19:38:53.725Z,-1.10
2023-02-07T19:41:22.320Z,-1.00
2023-02-07T19:43:50.267Z,-1.10
2023-02-07T19:46:18.738Z,-1.00
2023-02-07T19:48:47.069Z,-0.80
2023-02-07T19:51:18.747Z,-0.90
2023-02-07T19:53:47.454Z,-1.00
2023-02-07T19:56:15.979Z,-1.00
2023-02-07T19:58:45.729Z,-1.20
2023-02-07T20:01:14.916Z,-1.20
2023-02-07T20:03:44.298Z,-1.10
2023-02-07T20:06:15.059Z,-1.20
2023-02-07T20:08:44.298Z,-1.10
2023-02-07T20:11:14.922Z,-1.30
2023-02-07T20:13:44.935Z,-1.40
2023-02-07T20:16:15.136Z,-1.30
2023-02-07T20:18:43.281Z,-1.30
2023-02-07T20:21:14.016Z,-1.40
2023-02-07T20:23:44.363Z,-1.30
2023-02-07T20:26:15.949Z,-1.40
2023-02-07T20:28:46.071Z,-1.30
2023-02-07T20:31:16.027Z,-1.30
2023-02-07T20:33:44.220Z,-1.30
2023-02-07T20:36:14.426Z,-1.50
2023-02-07T20:38:44.869Z,-1.30
2023-02-07T20:41:29.790Z,-1.30
2023-02-07T20:44:01.335Z,-1.40
2023-02-07T20:46:31.410Z,-1.40
2023-02-07T20:49:00.656Z,-1.40
2023-02-07T20:51:29.840Z,-1.30
2023-02-07T20:53:59.647Z,-1.30
2023-02-07T20:56:31.554Z,-1.30
2023-02-07T20:59:00.917Z,-1.40
2023-02-07T21:01:31.228Z,-1.30
2023-02-07T21:04:01.877Z,-1.30
2023-02-07T21:06:30.735Z,-1.40
2023-02-07T21:09:01.646Z,-1.50
2023-02-07T21:11:34.673Z,-1.60
2023-02-07T21:14:03.085Z,-1.60
2023-02-07T21:16:31.598Z,-1.50
2023-02-07T21:18:59.748Z,-1.50
2023-02-07T21:21:28.996Z,-1.60
2023-02-07T21:23:57.016Z,-1.70
2023-02-07T21:26:26.740Z,-1.70
2023-02-07T21:28:59.792Z,-1.70
2023-02-07T21:31:28.871Z,-1.80
2023-02-07T21:33:57.369Z,-1.80
2023-02-07T21:36:27.300Z,-1.80
2023-02-07T21:38:56.421Z,-1.80
2023-02-07T21:41:26.540Z,-1.70
2023-02-07T21:43:56.101Z,-1.80
2023-02-07T21:46:28.140Z,-1.80
2023-02-07T21:49:00.508Z,-1.90
2023-02-07T21:51:30.424Z,-1.90
2023-02-07T21:53:59.317Z,-1.90
2023-02-07T21:56:29.078Z,-1.80
2023-02-07T21:58:58.642Z,-2.00
2023-02-07T22:01:29.139Z,-1.90
2023-02-07T22:04:00.300Z,-2.00
2023-02-07T22:06:28.826Z,-2.10
2023-02-07T22:08:59.466Z,-2.20
2023-02-07T22:11:30.798Z,-2.20
2023-02-07T22:13:59.684Z,-2.10
2023-02-07T22:16:31.097Z,-2.00
2023-02-07T22:19:00.695Z,-1.90
2023-02-07T22:21:30.467Z,-1.90
2023-02-07T22:23:59.372Z,-1.90
2023-02-07T22:26:28.589Z,-2.10
2023-02-07T22:28:57.512Z,-2.20
2023-02-07T22:31:28.815Z,-2.10
2023-02-07T22:34:01.015Z,-2.10
2023-02-07T22:36:30.970Z,-2.10
2023-02-07T22:39:00.558Z,-2.20
2023-02-07T22:41:29.305Z,-2.10
2023-02-07T22:43:57.481Z,-2.20
2023-02-07T22:46:26.334Z,-2.20
2023-02-07T22:48:56.227Z,-2.40
2023-02-07T22:51:27.325Z,-2.50
2023-02-07T22:53:57.690Z,-2.40
2023-02-07T22:56:26.901Z,-2.40
2023-02-07T22:58:56.012Z,-2.50
2023-02-07T23:01:26.282Z,-2.60
2023-02-07T23:03:57.015Z,-2.70
2023-02-07T23:06:26.456Z,-2.60
2023-02-07T23:08:55.144Z,-2.80
2023-02-07T23:11:24.149Z,-2.60
2023-02-07T23:13:53.277Z,-2.50
2023-02-07T23:16:23.730Z,-2.70
2023-02-07T23:18:53.262Z,-2.60
2023-02-07T23:21:24.362Z,-2.60
2023-02-07T23:23:52.862Z,-2.60
2023-02-07T23:26:23.738Z,-2.70
2023-02-07T23:28:52.512Z,-2.70
2023-02-07T23:31:22.794Z,-2.70
2023-02-07T23:33:51.269Z,-2.70
2023-02-07T23:36:20.349Z,-2.70
2023-02-07T23:38:50.580Z,-2.70
2023-02-07T23:41:18.827Z,-2.70
2023-02-07T23:43:47.580Z,-2.70
2023-02-07T23:46:16.887Z,-2.70
2023-02-07T23:48:45.065Z,-2.80
2023-02-07T23:51:14.012Z,-2.70
2023-02-07T23:53:42.116Z,-2.70
2023-02-07T23:56:15.579Z,-2.70
2023-02-07T23:58:44.855Z,-2.70
